LFLC 190730Z AUTO 02005KT 9999 BKN014 OVC030 05/03 Q1026 BECMG SCT040

ElémentsDécodage
LFLC Station météo située sur l'aérodrome de CLERMONT-FERRAND Auvergne
190730Z émis le 19 du mois à 07h30 UTC
AUTO Bulletin édité par un automate
02005KT vent du 020°, 05 noeuds
9999 visibilité horizontale supérieure à 10 Km
BKN014 nuages morcelés (5/8 à 7/8) à 1400 pieds
OVC030 couverture nuageuse totale (8/8) à 3000 pieds
05/03 température 05°C, point de rosée 03°C
 soit une humidité relative de 87%
Q1026 la pression au niveau de la mer (QNH) est de 1026 hPa
BECMG fluctuation du temps prévue
SCT040 nuages épars (3/8 à 4/8) à 4000 pieds